sensor_id;sensor_type;location;lat;lon;timestamp;P1;durP1;ratioP1;P2;durP2;ratioP2
17858;SDS011;35426;30.698;104.050;2024-01-15T00:02:24;279.30;;;105.13;;
17858;SDS011;35426;30.698;104.050;2024-01-15T00:04:58;274.57;;;104.23;;
17858;SDS011;35426;30.698;104.050;2024-01-15T00:07:32;276.40;;;102.57;;
17858;SDS011;35426;30.698;104.050;2024-01-15T00:10:06;265.90;;;103.27;;
17858;SDS011;35426;30.698;104.050;2024-01-15T00:12:42;267.67;;;100.80;;
17858;SDS011;35426;30.698;104.050;2024-01-15T00:15:17;272.80;;;99.87;;
17858;SDS011;35426;30.698;104.050;2024-01-15T00:17:51;247.17;;;94.50;;
17858;SDS011;35426;30.698;104.050;2024-01-15T00:20:26;258.13;;;98.03;;
17858;SDS011;35426;30.698;104.050;2024-01-15T00:23:01;265.27;;;96.90;;
17858;SDS011;35426;30.698;104.050;2024-01-15T00:25:35;267.47;;;97.53;;
17858;SDS011;35426;30.698;104.050;2024-01-15T00:28:14;265.33;;;97.37;;
17858;SDS011;35426;30.698;104.050;2024-01-15T00:30:49;243.30;;;97.83;;
17858;SDS011;35426;30.698;104.050;2024-01-15T00:33:24;250.60;;;96.00;;
17858;SDS011;35426;30.698;104.050;2024-01-15T00:35:59;253.30;;;95.97;;
17858;SDS011;35426;30.698;104.050;2024-01-15T00:38:35;253.87;;;90.73;;
17858;SDS011;35426;30.698;104.050;2024-01-15T00:41:09;238.10;;;89.83;;
17858;SDS011;35426;30.698;104.050;2024-01-15T00:43:47;238.97;;;90.43;;
17858;SDS011;35426;30.698;104.050;2024-01-15T00:46:22;245.50;;;92.40;;
17858;SDS011;35426;30.698;104.050;2024-01-15T00:48:56;237.83;;;90.17;;
17858;SDS011;35426;30.698;104.050;2024-01-15T00:51:29;238.47;;;88.17;;
17858;SDS011;35426;30.698;104.050;2024-01-15T00:54:06;227.23;;;87.80;;
17858;SDS011;35426;30.698;104.050;2024-01-15T00:56:41;232.97;;;88.30;;
17858;SDS011;35426;30.698;104.050;2024-01-15T00:59:20;253.40;;;89.27;;
17858;SDS011;35426;30.698;104.050;2024-01-15T01:01:54;264.87;;;95.90;;
17858;SDS011;35426;30.698;104.050;2024-01-15T01:04:30;261.17;;;93.73;;
17858;SDS011;35426;30.698;104.050;2024-01-15T01:07:05;259.07;;;94.13;;
17858;SDS011;35426;30.698;104.050;2024-01-15T01:09:42;248.47;;;94.67;;
17858;SDS011;35426;30.698;104.050;2024-01-15T01:12:17;249.90;;;96.20;;
17858;SDS011;35426;30.698;104.050;2024-01-15T01:14:55;253.03;;;96.90;;
17858;SDS011;35426;30.698;104.050;2024-01-15T01:17:33;242.10;;;94.17;;
17858;SDS011;35426;30.698;104.050;2024-01-15T01:20:07;248.87;;;94.07;;
17858;SDS011;35426;30.698;104.050;2024-01-15T01:22:46;240.60;;;92.90;;
17858;SDS011;35426;30.698;104.050;2024-01-15T01:25:20;228.40;;;89.77;;
17858;SDS011;35426;30.698;104.050;2024-01-15T01:27:57;226.50;;;90.93;;
17858;SDS011;35426;30.698;104.050;2024-01-15T01:30:34;245.97;;;93.23;;
17858;SDS011;35426;30.698;104.050;2024-01-15T01:33:09;254.10;;;94.73;;
17858;SDS011;35426;30.698;104.050;2024-01-15T01:35:44;251.80;;;95.27;;
17858;SDS011;35426;30.698;104.050;2024-01-15T01:38:18;227.47;;;88.00;;
17858;SDS011;35426;30.698;104.050;2024-01-15T01:40:52;233.33;;;91.60;;
17858;SDS011;35426;30.698;104.050;2024-01-15T01:43:25;223.60;;;88.33;;
17858;SDS011;35426;30.698;104.050;2024-01-15T01:46:01;237.63;;;90.80;;
17858;SDS011;35426;30.698;104.050;2024-01-15T01:48:37;238.30;;;85.83;;
17858;SDS011;35426;30.698;104.050;2024-01-15T01:51:14;242.17;;;92.60;;
17858;SDS011;35426;30.698;104.050;2024-01-15T01:53:48;255.70;;;95.97;;
17858;SDS011;35426;30.698;104.050;2024-01-15T01:56:24;263.67;;;95.70;;
17858;SDS011;35426;30.698;104.050;2024-01-15T01:58:58;254.77;;;94.60;;
17858;SDS011;35426;30.698;104.050;2024-01-15T02:01:37;238.20;;;94.00;;
17858;SDS011;35426;30.698;104.050;2024-01-15T02:04:12;264.87;;;99.03;;
17858;SDS011;35426;30.698;104.050;2024-01-15T02:06:49;268.57;;;98.77;;
17858;SDS011;35426;30.698;104.050;2024-01-15T02:09:23;260.77;;;100.87;;
17858;SDS011;35426;30.698;104.050;2024-01-15T02:11:57;246.37;;;96.27;;
17858;SDS011;35426;30.698;104.050;2024-01-15T02:14:33;240.30;;;93.70;;
17858;SDS011;35426;30.698;104.050;2024-01-15T02:17:09;250.17;;;96.03;;
17858;SDS011;35426;30.698;104.050;2024-01-15T02:19:43;254.47;;;95.43;;
17858;SDS011;35426;30.698;104.050;2024-01-15T02:22:19;242.97;;;92.97;;
17858;SDS011;35426;30.698;104.050;2024-01-15T02:24:54;256.23;;;96.87;;
17858;SDS011;35426;30.698;104.050;2024-01-15T02:27:29;250.60;;;91.03;;
17858;SDS011;35426;30.698;104.050;2024-01-15T02:30:03;229.93;;;89.60;;
17858;SDS011;35426;30.698;104.050;2024-01-15T02:32:38;237.03;;;88.20;;
17858;SDS011;35426;30.698;104.050;2024-01-15T02:35:12;240.93;;;93.43;;
17858;SDS011;35426;30.698;104.050;2024-01-15T02:37:49;208.33;;;80.27;;
17858;SDS011;35426;30.698;104.050;2024-01-15T02:40:25;219.93;;;84.63;;
17858;SDS011;35426;30.698;104.050;2024-01-15T02:43:00;235.37;;;90.10;;
17858;SDS011;35426;30.698;104.050;2024-01-15T02:45:35;232.70;;;88.43;;
17858;SDS011;35426;30.698;104.050;2024-01-15T02:48:14;242.20;;;88.97;;
17858;SDS011;35426;30.698;104.050;2024-01-15T02:50:48;219.90;;;86.50;;
17858;SDS011;35426;30.698;104.050;2024-01-15T02:53:23;212.43;;;86.80;;
17858;SDS011;35426;30.698;104.050;2024-01-15T02:55:59;213.47;;;85.33;;
17858;SDS011;35426;30.698;104.050;2024-01-15T02:58:33;212.30;;;83.23;;
17858;SDS011;35426;30.698;104.050;2024-01-15T03:01:11;219.73;;;83.93;;
17858;SDS011;35426;30.698;104.050;2024-01-15T03:03:45;207.90;;;80.97;;
17858;SDS011;35426;30.698;104.050;2024-01-15T03:06:20;203.13;;;80.43;;
17858;SDS011;35426;30.698;104.050;2024-01-15T03:08:54;212.07;;;82.73;;
17858;SDS011;35426;30.698;104.050;2024-01-15T03:11:38;205.30;;;82.23;;
17858;SDS011;35426;30.698;104.050;2024-01-15T03:14:12;208.97;;;82.23;;
17858;SDS011;35426;30.698;104.050;2024-01-15T03:16:47;203.40;;;82.53;;
17858;SDS011;35426;30.698;104.050;2024-01-15T03:19:20;210.83;;;83.97;;
17858;SDS011;35426;30.698;104.050;2024-01-15T03:21:54;205.37;;;79.70;;
17858;SDS011;35426;30.698;104.050;2024-01-15T03:24:31;217.17;;;81.27;;
17858;SDS011;35426;30.698;104.050;2024-01-15T03:27:13;215.00;;;80.23;;
17858;SDS011;35426;30.698;104.050;2024-01-15T03:29:47;205.27;;;77.30;;
17858;SDS011;35426;30.698;104.050;2024-01-15T03:32:20;207.37;;;79.60;;
17858;SDS011;35426;30.698;104.050;2024-01-15T03:34:58;190.67;;;76.70;;
17858;SDS011;35426;30.698;104.050;2024-01-15T03:37:33;208.17;;;78.70;;
17858;SDS011;35426;30.698;104.050;2024-01-15T03:40:07;210.97;;;78.70;;
17858;SDS011;35426;30.698;104.050;2024-01-15T03:42:50;181.07;;;75.47;;
17858;SDS011;35426;30.698;104.050;2024-01-15T03:45:24;201.63;;;77.43;;
17858;SDS011;35426;30.698;104.050;2024-01-15T03:47:58;195.87;;;73.87;;
17858;SDS011;35426;30.698;104.050;2024-01-15T03:50:35;185.17;;;70.30;;
17858;SDS011;35426;30.698;104.050;2024-01-15T03:53:08;189.03;;;71.53;;
17858;SDS011;35426;30.698;104.050;2024-01-15T03:55:42;183.03;;;71.73;;
17858;SDS011;35426;30.698;104.050;2024-01-15T03:58:19;171.93;;;68.73;;
17858;SDS011;35426;30.698;104.050;2024-01-15T04:00:53;177.17;;;69.27;;
17858;SDS011;35426;30.698;104.050;2024-01-15T04:03:28;175.07;;;66.80;;
17858;SDS011;35426;30.698;104.050;2024-01-15T04:06:04;153.70;;;59.87;;
17858;SDS011;35426;30.698;104.050;2024-01-15T04:08:38;169.17;;;66.90;;
17858;SDS011;35426;30.698;104.050;2024-01-15T04:11:15;173.40;;;68.57;;
17858;SDS011;35426;30.698;104.050;2024-01-15T04:13:54;161.73;;;63.07;;
17858;SDS011;35426;30.698;104.050;2024-01-15T04:16:28;163.17;;;63.60;;
17858;SDS011;35426;30.698;104.050;2024-01-15T04:19:02;155.13;;;60.43;;
17858;SDS011;35426;30.698;104.050;2024-01-15T04:21:36;147.47;;;57.97;;
17858;SDS011;35426;30.698;104.050;2024-01-15T04:24:12;163.73;;;63.80;;
17858;SDS011;35426;30.698;104.050;2024-01-15T04:26:48;147.30;;;55.33;;
17858;SDS011;35426;30.698;104.050;2024-01-15T04:29:26;144.00;;;54.53;;
17858;SDS011;35426;30.698;104.050;2024-01-15T04:32:03;144.77;;;59.40;;
17858;SDS011;35426;30.698;104.050;2024-01-15T04:34:38;145.27;;;54.50;;
17858;SDS011;35426;30.698;104.050;2024-01-15T04:37:14;149.60;;;56.20;;
17858;SDS011;35426;30.698;104.050;2024-01-15T04:39:48;133.57;;;53.60;;
17858;SDS011;35426;30.698;104.050;2024-01-15T04:42:25;141.40;;;53.43;;
17858;SDS011;35426;30.698;104.050;2024-01-15T04:45:02;139.67;;;54.83;;
17858;SDS011;35426;30.698;104.050;2024-01-15T04:47:36;143.33;;;54.00;;
17858;SDS011;35426;30.698;104.050;2024-01-15T04:50:09;142.53;;;57.87;;
17858;SDS011;35426;30.698;104.050;2024-01-15T04:52:44;128.97;;;50.40;;
17858;SDS011;35426;30.698;104.050;2024-01-15T04:55:19;132.33;;;51.73;;
17858;SDS011;35426;30.698;104.050;2024-01-15T04:57:52;137.00;;;53.43;;
17858;SDS011;35426;30.698;104.050;2024-01-15T05:00:28;124.30;;;51.33;;
17858;SDS011;35426;30.698;104.050;2024-01-15T05:03:02;121.70;;;51.03;;
17858;SDS011;35426;30.698;104.050;2024-01-15T05:05:37;132.30;;;52.00;;
17858;SDS011;35426;30.698;104.050;2024-01-15T05:08:10;115.20;;;46.93;;
17858;SDS011;35426;30.698;104.050;2024-01-15T05:10:44;105.37;;;43.37;;
17858;SDS011;35426;30.698;104.050;2024-01-15T05:13:18;117.90;;;46.50;;
17858;SDS011;35426;30.698;104.050;2024-01-15T05:15:54;118.20;;;42.00;;
17858;SDS011;35426;30.698;104.050;2024-01-15T05:18:28;102.77;;;45.33;;
17858;SDS011;35426;30.698;104.050;2024-01-15T05:21:02;120.90;;;47.30;;
17858;SDS011;35426;30.698;104.050;2024-01-15T05:23:35;122.23;;;47.80;;
17858;SDS011;35426;30.698;104.050;2024-01-15T05:26:17;123.27;;;48.30;;
17858;SDS011;35426;30.698;104.050;2024-01-15T05:28:55;107.80;;;47.17;;
17858;SDS011;35426;30.698;104.050;2024-01-15T05:31:31;119.20;;;48.87;;
17858;SDS011;35426;30.698;104.050;2024-01-15T05:34:05;115.00;;;46.17;;
17858;SDS011;35426;30.698;104.050;2024-01-15T05:36:39;113.63;;;47.17;;
17858;SDS011;35426;30.698;104.050;2024-01-15T05:39:14;122.37;;;46.80;;
17858;SDS011;35426;30.698;104.050;2024-01-15T05:41:51;113.20;;;46.67;;
17858;SDS011;35426;30.698;104.050;2024-01-15T05:44:24;115.83;;;50.33;;
17858;SDS011;35426;30.698;104.050;2024-01-15T05:47:00;112.77;;;46.60;;
17858;SDS011;35426;30.698;104.050;2024-01-15T05:49:34;121.97;;;48.00;;
17858;SDS011;35426;30.698;104.050;2024-01-15T05:52:08;127.33;;;49.47;;
17858;SDS011;35426;30.698;104.050;2024-01-15T05:54:42;119.37;;;49.63;;
17858;SDS011;35426;30.698;104.050;2024-01-15T05:57:16;131.70;;;50.77;;
17858;SDS011;35426;30.698;104.050;2024-01-15T05:59:50;116.13;;;49.73;;
17858;SDS011;35426;30.698;104.050;2024-01-15T06:02:26;141.20;;;52.77;;
17858;SDS011;35426;30.698;104.050;2024-01-15T06:05:00;129.63;;;53.23;;
17858;SDS011;35426;30.698;104.050;2024-01-15T06:07:34;129.20;;;52.93;;
17858;SDS011;35426;30.698;104.050;2024-01-15T06:10:08;137.53;;;54.87;;
17858;SDS011;35426;30.698;104.050;2024-01-15T06:12:43;145.67;;;54.60;;
17858;SDS011;35426;30.698;104.050;2024-01-15T06:15:17;133.73;;;56.23;;
17858;SDS011;35426;30.698;104.050;2024-01-15T06:17:53;144.63;;;55.97;;
17858;SDS011;35426;30.698;104.050;2024-01-15T06:20:27;136.70;;;54.67;;
17858;SDS011;35426;30.698;104.050;2024-01-15T06:23:02;137.13;;;54.70;;
17858;SDS011;35426;30.698;104.050;2024-01-15T06:25:36;135.53;;;54.17;;
17858;SDS011;35426;30.698;104.050;2024-01-15T06:28:09;137.67;;;55.87;;
17858;SDS011;35426;30.698;104.050;2024-01-15T06:30:44;136.37;;;55.83;;
17858;SDS011;35426;30.698;104.050;2024-01-15T06:33:20;148.30;;;56.87;;
17858;SDS011;35426;30.698;104.050;2024-01-15T06:35:54;132.40;;;55.93;;
17858;SDS011;35426;30.698;104.050;2024-01-15T06:38:28;136.57;;;55.30;;
17858;SDS011;35426;30.698;104.050;2024-01-15T06:41:02;143.03;;;59.20;;
17858;SDS011;35426;30.698;104.050;2024-01-15T06:43:36;135.10;;;56.17;;
17858;SDS011;35426;30.698;104.050;2024-01-15T06:46:11;144.07;;;59.00;;
17858;SDS011;35426;30.698;104.050;2024-01-15T06:48:52;148.77;;;59.83;;
17858;SDS011;35426;30.698;104.050;2024-01-15T06:51:27;144.03;;;61.10;;
17858;SDS011;35426;30.698;104.050;2024-01-15T06:54:01;163.10;;;59.93;;
17858;SDS011;35426;30.698;104.050;2024-01-15T06:56:35;151.47;;;60.50;;
17858;SDS011;35426;30.698;104.050;2024-01-15T06:59:09;142.10;;;59.17;;
17858;SDS011;35426;30.698;104.050;2024-01-15T07:01:47;155.63;;;60.23;;
17858;SDS011;35426;30.698;104.050;2024-01-15T07:04:22;153.40;;;62.20;;
17858;SDS011;35426;30.698;104.050;2024-01-15T07:06:56;147.63;;;59.87;;
17858;SDS011;35426;30.698;104.050;2024-01-15T07:09:29;143.60;;;60.87;;
17858;SDS011;35426;30.698;104.050;2024-01-15T07:12:04;144.73;;;58.50;;
17858;SDS011;35426;30.698;104.050;2024-01-15T07:14:38;143.73;;;57.57;;
17858;SDS011;35426;30.698;104.050;2024-01-15T07:17:11;136.33;;;57.53;;
17858;SDS011;35426;30.698;104.050;2024-01-15T07:19:48;145.83;;;58.60;;
17858;SDS011;35426;30.698;104.050;2024-01-15T07:22:22;139.47;;;58.70;;
17858;SDS011;35426;30.698;104.050;2024-01-15T07:24:56;139.10;;;56.87;;
17858;SDS011;35426;30.698;104.050;2024-01-15T07:27:30;142.60;;;58.10;;
17858;SDS011;35426;30.698;104.050;2024-01-15T07:30:04;146.33;;;60.03;;
17858;SDS011;35426;30.698;104.050;2024-01-15T07:32:39;141.60;;;58.40;;
17858;SDS011;35426;30.698;104.050;2024-01-15T07:35:14;146.77;;;57.77;;
17858;SDS011;35426;30.698;104.050;2024-01-15T07:37:49;148.27;;;58.60;;
17858;SDS011;35426;30.698;104.050;2024-01-15T07:40:22;145.93;;;57.07;;
17858;SDS011;35426;30.698;104.050;2024-01-15T07:42:58;139.00;;;58.53;;
17858;SDS011;35426;30.698;104.050;2024-01-15T07:45:32;139.53;;;57.63;;
17858;SDS011;35426;30.698;104.050;2024-01-15T07:48:07;141.93;;;57.07;;
17858;SDS011;35426;30.698;104.050;2024-01-15T07:50:44;152.90;;;58.27;;
17858;SDS011;35426;30.698;104.050;2024-01-15T07:53:18;138.93;;;58.23;;
17858;SDS011;35426;30.698;104.050;2024-01-15T07:55:52;144.73;;;59.33;;
17858;SDS011;35426;30.698;104.050;2024-01-15T07:58:26;146.83;;;58.47;;
17858;SDS011;35426;30.698;104.050;2024-01-15T08:01:00;150.97;;;59.47;;
17858;SDS011;35426;30.698;104.050;2024-01-15T08:03:35;152.37;;;59.80;;
17858;SDS011;35426;30.698;104.050;2024-01-15T08:06:10;147.17;;;59.00;;
17858;SDS011;35426;30.698;104.050;2024-01-15T08:08:44;138.27;;;57.53;;
17858;SDS011;35426;30.698;104.050;2024-01-15T08:11:18;148.10;;;59.53;;
17858;SDS011;35426;30.698;104.050;2024-01-15T08:13:52;145.93;;;59.17;;
17858;SDS011;35426;30.698;104.050;2024-01-15T08:16:26;154.13;;;61.37;;
17858;SDS011;35426;30.698;104.050;2024-01-15T08:19:00;149.43;;;60.57;;
17858;SDS011;35426;30.698;104.050;2024-01-15T08:21:37;155.77;;;63.97;;
17858;SDS011;35426;30.698;104.050;2024-01-15T08:24:11;164.00;;;62.83;;
17858;SDS011;35426;30.698;104.050;2024-01-15T08:26:46;152.20;;;61.20;;
17858;SDS011;35426;30.698;104.050;2024-01-15T08:29:20;156.03;;;59.43;;
17858;SDS011;35426;30.698;104.050;2024-01-15T08:31:54;140.47;;;59.63;;
17858;SDS011;35426;30.698;104.050;2024-01-15T08:34:28;139.43;;;58.23;;
17858;SDS011;35426;30.698;104.050;2024-01-15T08:37:05;142.23;;;57.03;;
17858;SDS011;35426;30.698;104.050;2024-01-15T08:39:39;136.70;;;55.27;;
17858;SDS011;35426;30.698;104.050;2024-01-15T08:42:15;132.87;;;54.47;;
17858;SDS011;35426;30.698;104.050;2024-01-15T08:44:49;133.07;;;54.87;;
17858;SDS011;35426;30.698;104.050;2024-01-15T08:47:23;131.57;;;54.60;;
17858;SDS011;35426;30.698;104.050;2024-01-15T08:49:57;136.83;;;54.07;;
17858;SDS011;35426;30.698;104.050;2024-01-15T08:52:33;133.93;;;54.30;;
17858;SDS011;35426;30.698;104.050;2024-01-15T08:55:07;135.80;;;54.20;;
17858;SDS011;35426;30.698;104.050;2024-01-15T08:57:42;119.23;;;50.90;;
17858;SDS011;35426;30.698;104.050;2024-01-15T09:00:16;122.70;;;50.30;;
17858;SDS011;35426;30.698;104.050;2024-01-15T09:02:52;119.10;;;49.60;;
17858;SDS011;35426;30.698;104.050;2024-01-15T09:05:26;119.10;;;48.07;;
17858;SDS011;35426;30.698;104.050;2024-01-15T09:08:02;110.87;;;46.97;;
17858;SDS011;35426;30.698;104.050;2024-01-15T09:10:36;114.43;;;46.97;;
17858;SDS011;35426;30.698;104.050;2024-01-15T09:13:11;112.20;;;47.53;;
17858;SDS011;35426;30.698;104.050;2024-01-15T09:15:47;129.67;;;50.33;;
17858;SDS011;35426;30.698;104.050;2024-01-15T09:18:22;123.50;;;47.27;;
17858;SDS011;35426;30.698;104.050;2024-01-15T09:20:58;122.90;;;48.20;;
17858;SDS011;35426;30.698;104.050;2024-01-15T09:23:34;131.10;;;49.23;;
17858;SDS011;35426;30.698;104.050;2024-01-15T09:26:08;115.17;;;49.30;;
17858;SDS011;35426;30.698;104.050;2024-01-15T09:28:42;119.43;;;48.90;;
17858;SDS011;35426;30.698;104.050;2024-01-15T09:31:17;131.53;;;47.83;;
17858;SDS011;35426;30.698;104.050;2024-01-15T09:33:52;127.83;;;49.43;;
17858;SDS011;35426;30.698;104.050;2024-01-15T09:36:32;124.67;;;48.93;;
17858;SDS011;35426;30.698;104.050;2024-01-15T09:39:12;132.27;;;50.40;;
17858;SDS011;35426;30.698;104.050;2024-01-15T09:41:46;127.00;;;48.97;;
17858;SDS011;35426;30.698;104.050;2024-01-15T09:44:21;118.20;;;48.93;;
17858;SDS011;35426;30.698;104.050;2024-01-15T09:46:56;127.60;;;48.83;;
17858;SDS011;35426;30.698;104.050;2024-01-15T09:49:31;129.00;;;47.70;;
17858;SDS011;35426;30.698;104.050;2024-01-15T09:52:05;129.87;;;50.43;;
17858;SDS011;35426;30.698;104.050;2024-01-15T09:54:49;121.00;;;49.13;;
17858;SDS011;35426;30.698;104.050;2024-01-15T09:57:25;124.03;;;49.07;;
17858;SDS011;35426;30.698;104.050;2024-01-15T09:59:59;123.67;;;49.00;;
17858;SDS011;35426;30.698;104.050;2024-01-15T10:02:43;120.17;;;47.83;;
17858;SDS011;35426;30.698;104.050;2024-01-15T10:05:18;129.27;;;50.07;;
17858;SDS011;35426;30.698;104.050;2024-01-15T10:07:53;141.50;;;47.50;;
17858;SDS011;35426;30.698;104.050;2024-01-15T10:10:31;121.30;;;49.27;;
17858;SDS011;35426;30.698;104.050;2024-01-15T10:13:07;125.10;;;48.60;;
17858;SDS011;35426;30.698;104.050;2024-01-15T10:15:45;113.60;;;48.40;;
17858;SDS011;35426;30.698;104.050;2024-01-15T10:18:20;128.37;;;48.70;;
17858;SDS011;35426;30.698;104.050;2024-01-15T10:20:56;133.03;;;49.63;;
17858;SDS011;35426;30.698;104.050;2024-01-15T10:23:30;134.23;;;49.73;;
17858;SDS011;35426;30.698;104.050;2024-01-15T10:26:09;124.40;;;47.27;;
17858;SDS011;35426;30.698;104.050;2024-01-15T10:28:47;119.60;;;47.93;;
17858;SDS011;35426;30.698;104.050;2024-01-15T10:31:24;123.40;;;49.07;;
17858;SDS011;35426;30.698;104.050;2024-01-15T10:34:10;133.90;;;50.13;;
17858;SDS011;35426;30.698;104.050;2024-01-15T10:36:45;122.87;;;49.07;;
17858;SDS011;35426;30.698;104.050;2024-01-15T10:39:25;128.33;;;49.57;;
17858;SDS011;35426;30.698;104.050;2024-01-15T10:42:01;128.20;;;48.37;;
17858;SDS011;35426;30.698;104.050;2024-01-15T10:44:35;123.90;;;48.40;;
17858;SDS011;35426;30.698;104.050;2024-01-15T10:47:09;127.33;;;50.20;;
17858;SDS011;35426;30.698;104.050;2024-01-15T10:49:43;128.37;;;50.63;;
17858;SDS011;35426;30.698;104.050;2024-01-15T10:52:17;127.73;;;49.87;;
17858;SDS011;35426;30.698;104.050;2024-01-15T10:54:52;130.20;;;49.17;;
17858;SDS011;35426;30.698;104.050;2024-01-15T10:57:33;120.13;;;48.87;;
17858;SDS011;35426;30.698;104.050;2024-01-15T11:00:08;130.10;;;48.50;;
17858;SDS011;35426;30.698;104.050;2024-01-15T11:02:44;139.10;;;49.43;;
17858;SDS011;35426;30.698;104.050;2024-01-15T11:05:18;136.00;;;48.30;;
17858;SDS011;35426;30.698;104.050;2024-01-15T11:07:55;129.00;;;49.77;;
17858;SDS011;35426;30.698;104.050;2024-01-15T11:10:41;124.10;;;48.47;;
17858;SDS011;35426;30.698;104.050;2024-01-15T11:13:21;136.33;;;49.83;;
17858;SDS011;35426;30.698;104.050;2024-01-15T11:16:11;137.57;;;49.07;;
17858;SDS011;35426;30.698;104.050;2024-01-15T11:19:04;129.07;;;50.53;;
17858;SDS011;35426;30.698;104.050;2024-01-15T11:21:42;134.23;;;47.60;;
17858;SDS011;35426;30.698;104.050;2024-01-15T11:27:08;118.60;;;46.87;;
17858;SDS011;35426;30.698;104.050;2024-01-15T11:29:45;132.73;;;49.70;;
17858;SDS011;35426;30.698;104.050;2024-01-15T11:32:33;129.73;;;50.23;;
17858;SDS011;35426;30.698;104.050;2024-01-15T11:35:07;125.73;;;46.87;;
17858;SDS011;35426;30.698;104.050;2024-01-15T11:37:59;135.03;;;47.60;;
17858;SDS011;35426;30.698;104.050;2024-01-15T11:40:38;127.73;;;47.67;;
17858;SDS011;35426;30.698;104.050;2024-01-15T11:43:15;132.67;;;47.93;;
17858;SDS011;35426;30.698;104.050;2024-01-15T11:45:56;121.63;;;47.20;;
17858;SDS011;35426;30.698;104.050;2024-01-15T11:48:35;122.90;;;47.47;;
17858;SDS011;35426;30.698;104.050;2024-01-15T11:51:18;117.93;;;46.23;;
17858;SDS011;35426;30.698;104.050;2024-01-15T11:53:53;122.30;;;48.20;;
17858;SDS011;35426;30.698;104.050;2024-01-15T11:56:33;113.57;;;47.43;;
17858;SDS011;35426;30.698;104.050;2024-01-15T11:59:10;113.13;;;47.23;;
17858;SDS011;35426;30.698;104.050;2024-01-15T12:01:57;116.67;;;46.93;;
17858;SDS011;35426;30.698;104.050;2024-01-15T12:04:33;124.80;;;49.10;;
17858;SDS011;35426;30.698;104.050;2024-01-15T12:07:09;127.83;;;47.47;;
17858;SDS011;35426;30.698;104.050;2024-01-15T12:09:44;126.73;;;49.60;;
17858;SDS011;35426;30.698;104.050;2024-01-15T12:12:20;121.67;;;48.03;;
17858;SDS011;35426;30.698;104.050;2024-01-15T12:14:59;118.90;;;47.23;;
17858;SDS011;35426;30.698;104.050;2024-01-15T12:17:35;122.50;;;48.77;;
17858;SDS011;35426;30.698;104.050;2024-01-15T12:20:12;126.97;;;49.03;;
17858;SDS011;35426;30.698;104.050;2024-01-15T12:22:46;129.63;;;49.30;;
17858;SDS011;35426;30.698;104.050;2024-01-15T12:25:29;124.00;;;49.10;;
17858;SDS011;35426;30.698;104.050;2024-01-15T12:28:04;125.13;;;49.93;;
17858;SDS011;35426;30.698;104.050;2024-01-15T12:30:39;133.70;;;49.10;;
17858;SDS011;35426;30.698;104.050;2024-01-15T12:33:17;138.00;;;50.33;;
17858;SDS011;35426;30.698;104.050;2024-01-15T12:35:53;136.83;;;48.27;;
17858;SDS011;35426;30.698;104.050;2024-01-15T12:38:28;123.47;;;48.17;;
17858;SDS011;35426;30.698;104.050;2024-01-15T12:41:03;125.53;;;49.87;;
17858;SDS011;35426;30.698;104.050;2024-01-15T12:43:37;124.57;;;47.97;;
17858;SDS011;35426;30.698;104.050;2024-01-15T12:46:14;128.40;;;48.27;;
17858;SDS011;35426;30.698;104.050;2024-01-15T12:48:51;127.43;;;48.80;;
17858;SDS011;35426;30.698;104.050;2024-01-15T12:51:25;120.40;;;48.53;;
17858;SDS011;35426;30.698;104.050;2024-01-15T12:53:59;126.67;;;48.97;;
17858;SDS011;35426;30.698;104.050;2024-01-15T12:56:33;124.47;;;49.30;;
17858;SDS011;35426;30.698;104.050;2024-01-15T12:59:09;126.40;;;49.90;;
17858;SDS011;35426;30.698;104.050;2024-01-15T13:01:43;128.17;;;51.53;;
17858;SDS011;35426;30.698;104.050;2024-01-15T13:04:24;122.47;;;48.20;;
17858;SDS011;35426;30.698;104.050;2024-01-15T13:06:59;128.87;;;50.87;;
17858;SDS011;35426;30.698;104.050;2024-01-15T13:09:33;127.57;;;51.50;;
17858;SDS011;35426;30.698;104.050;2024-01-15T13:12:08;120.10;;;49.30;;
17858;SDS011;35426;30.698;104.050;2024-01-15T13:14:42;128.23;;;50.67;;
17858;SDS011;35426;30.698;104.050;2024-01-15T13:17:17;134.83;;;52.00;;
17858;SDS011;35426;30.698;104.050;2024-01-15T13:19:53;133.40;;;51.10;;
17858;SDS011;35426;30.698;104.050;2024-01-15T13:22:27;141.57;;;51.50;;
17858;SDS011;35426;30.698;104.050;2024-01-15T13:25:02;132.13;;;50.63;;
17858;SDS011;35426;30.698;104.050;2024-01-15T13:27:37;130.87;;;53.13;;
17858;SDS011;35426;30.698;104.050;2024-01-15T13:30:11;129.03;;;50.60;;
17858;SDS011;35426;30.698;104.050;2024-01-15T13:32:45;133.27;;;52.47;;
17858;SDS011;35426;30.698;104.050;2024-01-15T13:35:21;136.80;;;51.83;;
17858;SDS011;35426;30.698;104.050;2024-01-15T13:37:58;131.67;;;51.73;;
17858;SDS011;35426;30.698;104.050;2024-01-15T13:40:32;131.37;;;53.00;;
17858;SDS011;35426;30.698;104.050;2024-01-15T13:43:07;123.03;;;53.07;;
17858;SDS011;35426;30.698;104.050;2024-01-15T13:45:41;129.93;;;51.47;;
17858;SDS011;35426;30.698;104.050;2024-01-15T13:48:15;130.33;;;52.53;;
17858;SDS011;35426;30.698;104.050;2024-01-15T13:50:52;125.37;;;51.43;;
17858;SDS011;35426;30.698;104.050;2024-01-15T13:53:26;132.03;;;53.60;;
17858;SDS011;35426;30.698;104.050;2024-01-15T13:56:00;138.17;;;55.40;;
17858;SDS011;35426;30.698;104.050;2024-01-15T13:58:34;132.03;;;52.67;;
17858;SDS011;35426;30.698;104.050;2024-01-15T14:01:12;143.63;;;55.03;;
17858;SDS011;35426;30.698;104.050;2024-01-15T14:03:46;135.90;;;54.10;;
17858;SDS011;35426;30.698;104.050;2024-01-15T14:06:22;136.47;;;53.73;;
17858;SDS011;35426;30.698;104.050;2024-01-15T14:08:57;135.37;;;53.87;;
17858;SDS011;35426;30.698;104.050;2024-01-15T14:11:35;135.70;;;55.20;;
17858;SDS011;35426;30.698;104.050;2024-01-15T14:14:09;133.87;;;53.80;;
17858;SDS011;35426;30.698;104.050;2024-01-15T14:16:44;137.70;;;55.63;;
17858;SDS011;35426;30.698;104.050;2024-01-15T14:19:20;144.50;;;55.73;;
17858;SDS011;35426;30.698;104.050;2024-01-15T14:21:56;143.63;;;55.83;;
17858;SDS011;35426;30.698;104.050;2024-01-15T14:24:30;132.93;;;53.43;;
17858;SDS011;35426;30.698;104.050;2024-01-15T14:27:04;136.03;;;55.03;;
17858;SDS011;35426;30.698;104.050;2024-01-15T14:29:38;146.70;;;54.17;;
17858;SDS011;35426;30.698;104.050;2024-01-15T14:32:12;141.53;;;56.87;;
17858;SDS011;35426;30.698;104.050;2024-01-15T14:34:46;143.27;;;54.37;;